Time;durP1;ratioP1;P1;durP2;ratioP2;P2;SDS_P1;SDS_P2;PMS_P1;PMS_P2;Temp;Humidity;BMP_temperature;BMP_pressure;BME280_temperature;BME280_humidity;BME280_pressure;Samples;Min_cycle;Max_cycle;Signal;HPM_P1;HPM_P2
2024/02/25 00:01:57;;;;;;;;;;;;;;;8.74;79.00;101165.34;107575;1252;97851;-63
2024/02/25 00:04:26;;;;;;;;;;;;;;;8.69;79.28;101168.41;107611;1254;112355;-61
2024/02/25 00:06:54;;;;;;;;;;;;;;;8.66;79.64;101169.49;107662;1253;107202;-63
2024/02/25 00:09:22;;;;;;;;;;;;;;;8.63;79.81;101173.48;107630;1253;107677;-63
2024/02/25 00:11:50;;;;;;;;;;;;;;;8.59;79.63;101169.80;107579;1256;97863;-62
2024/02/25 00:14:18;;;;;;;;;;;;;;;8.59;80.22;101165.71;107622;1254;97890;-64
2024/02/25 00:16:46;;;;;;;;;;;;;;;8.58;80.08;101162.05;107578;1251;112901;-62
2024/02/25 00:19:15;;;;;;;;;;;;;;;8.54;80.22;101164.13;107478;1251;108697;-62
2024/02/25 00:21:44;;;;;;;;;;;;;;;8.51;80.17;101163.63;107523;1250;109179;-65
2024/02/25 00:24:13;;;;;;;;;;;;;;;8.45;80.37;101162.41;107474;1251;97839;-64
2024/02/25 00:26:41;;;;;;;;;;;;;;;8.36;80.47;101160.05;107509;1254;97851;-64
2024/02/25 00:29:14;;;;;;;;;;;;;;;8.31;80.69;101159.47;107531;1251;111913;-63
2024/02/25 00:31:43;;;;;;;;;;;;;;;8.27;80.88;101166.39;107528;1254;107588;-62
2024/02/25 00:34:11;;;;;;;;;;;;;;;8.25;80.93;101163.37;107645;1254;108832;-62
2024/02/25 00:36:40;;;;;;;;;;;;;;;8.22;81.24;101160.89;107585;1254;97876;-64
2024/02/25 00:39:08;;;;;;;;;;;;;;;8.20;81.31;101160.15;107590;1256;97832;-66
2024/02/25 00:41:37;;;;;;;;;;;;;;;8.21;81.29;101164.90;107593;1254;113717;-63
2024/02/25 00:44:05;;;;;;;;;;;;;;;8.23;81.30;101171.52;107603;1254;108829;-64
2024/02/25 00:46:33;;;;;;;;;;;;;;;8.24;81.48;101172.13;107525;1254;108518;-63
2024/02/25 00:49:01;;;;;;;;;;;;;;;8.27;81.46;101177.64;107555;1253;97850;-62
2024/02/25 00:51:29;;;;;;;;;;;;;;;8.30;81.30;101178.00;107669;1254;98351;-65
2024/02/25 00:53:58;;;;;;;;;;;;;;;8.30;81.59;101179.97;107645;1254;111985;-65
2024/02/25 00:56:26;;;;;;;;;;;;;;;8.31;81.56;101183.97;107633;1253;108847;-66
2024/02/25 00:58:54;;;;;;;;;;;;;;;8.32;81.53;101180.88;107612;1252;107596;-64
2024/02/25 01:01:22;;;;;;;;;;;;;;;8.34;81.61;101185.00;107575;1252;97812;-63
2024/02/25 01:03:50;;;;;;;;;;;;;;;8.34;81.64;101185.71;107646;1253;97830;-63
2024/02/25 01:06:18;;;;;;;;;;;;;;;8.30;81.47;101179.03;107681;1255;111332;-63
2024/02/25 01:08:47;;;;;;;;;;;;;;;8.26;81.43;101183.82;107629;1254;108060;-65
2024/02/25 01:11:15;;;;;;;;;;;;;;;8.21;81.95;101182.36;107585;1254;108310;-63
2024/02/25 01:13:47;;;;;;;;;;;;;;;8.15;82.55;101179.40;107570;1255;97906;-62
2024/02/25 01:16:15;;;;;;;;;;;;;;;8.09;82.83;101185.40;107640;1252;98375;-63
2024/02/25 01:18:44;;;;;;;;;;;;;;;8.04;83.03;101183.73;107592;1254;112011;-63
2024/02/25 01:21:13;;;;;;;;;;;;;;;8.02;82.94;101185.16;107653;1254;108469;-65
2024/02/25 01:23:41;;;;;;;;;;;;;;;8.04;83.41;101186.78;107624;1253;107986;-63
2024/02/25 01:26:10;;;;;;;;;;;;;;;8.09;84.04;101185.02;107624;1256;98365;-63
2024/02/25 01:28:39;;;;;;;;;;;;;;;8.12;84.22;101183.89;107607;1251;97937;-66
2024/02/25 01:31:07;;;;;;;;;;;;;;;8.12;84.56;101186.89;107611;1251;110444;-66
2024/02/25 01:33:36;;;;;;;;;;;;;;;8.13;84.18;101189.52;107575;1250;107568;-65
2024/02/25 01:36:05;;;;;;;;;;;;;;;8.15;84.09;101189.08;107572;1254;108224;-65
2024/02/25 01:38:33;;;;;;;;;;;;;;;8.17;84.12;101187.30;107583;1251;97736;-64
2024/02/25 01:41:01;;;;;;;;;;;;;;;8.18;83.87;101186.77;107569;1251;97822;-63
2024/02/25 01:43:29;;;;;;;;;;;;;;;8.19;84.00;101185.19;107561;1254;111025;-63
2024/02/25 01:45:58;;;;;;;;;;;;;;;8.20;84.24;101185.52;107634;1254;108340;-63
2024/02/25 01:48:26;;;;;;;;;;;;;;;8.18;83.85;101187.42;107645;1253;107586;-65
2024/02/25 01:50:58;;;;;;;;;;;;;;;8.15;83.68;101183.87;107600;1254;97874;-65
2024/02/25 01:53:27;;;;;;;;;;;;;;;8.10;84.06;101189.39;107601;1254;97810;-63
2024/02/25 01:55:56;;;;;;;;;;;;;;;8.06;83.96;101191.16;107646;1252;112087;-63
2024/02/25 01:58:26;;;;;;;;;;;;;;;8.02;84.32;101187.67;107630;1254;108580;-64
2024/02/25 02:00:54;;;;;;;;;;;;;;;7.98;84.15;101182.05;107551;1254;107758;-64
2024/02/25 02:03:22;;;;;;;;;;;;;;;7.96;84.57;101180.79;107587;1256;97940;-64
2024/02/25 02:05:50;;;;;;;;;;;;;;;7.93;85.29;101178.42;107666;1253;97774;-66
2024/02/25 02:08:19;;;;;;;;;;;;;;;7.95;86.01;101175.26;107614;1253;111803;-64
2024/02/25 02:10:49;;;;;;;;;;;;;;;7.97;85.99;101179.77;107618;1254;108532;-65
2024/02/25 02:13:21;;;;;;;;;;;;;;;7.98;86.41;101175.98;107609;1253;108414;-63
2024/02/25 02:15:49;;;;;;;;;;;;;;;7.97;86.22;101178.02;107572;1253;97860;-65
2024/02/25 02:18:17;;;;;;;;;;;;;;;7.98;85.93;101178.11;107630;1254;97825;-65
2024/02/25 02:20:48;;;;;;;;;;;;;;;7.99;86.22;101173.20;107598;1254;110413;-64
2024/02/25 02:23:16;;;;;;;;;;;;;;;7.99;86.32;101173.38;107603;1255;108527;-63
2024/02/25 02:25:44;;;;;;;;;;;;;;;8.02;86.38;101174.27;107613;1256;107360;-64
2024/02/25 02:28:13;;;;;;;;;;;;;;;8.04;86.21;101173.39;107533;1253;97954;-64
2024/02/25 02:30:41;;;;;;;;;;;;;;;8.01;86.27;101175.96;107529;1253;97828;-64
2024/02/25 02:33:10;;;;;;;;;;;;;;;7.94;86.04;101180.68;107628;1256;111133;-64
2024/02/25 02:35:38;;;;;;;;;;;;;;;7.90;86.25;101178.98;107626;1252;108382;-62
2024/02/25 02:38:11;;;;;;;;;;;;;;;7.86;86.25;101183.44;107607;1254;107723;-64
2024/02/25 02:40:39;;;;;;;;;;;;;;;7.81;86.70;101188.05;107621;1253;97826;-63
2024/02/25 02:43:08;;;;;;;;;;;;;;;7.77;86.66;101189.72;107596;1252;97832;-64
2024/02/25 02:45:36;;;;;;;;;;;;;;;7.76;86.92;101194.84;107640;1254;113097;-64
2024/02/25 02:48:09;;;;;;;;;;;;;;;7.78;87.27;101201.83;107439;1253;108511;-66
2024/02/25 02:50:37;;;;;;;;;;;;;;;7.82;87.50;101206.35;107469;1254;107616;-65
2024/02/25 02:53:06;;;;;;;;;;;;;;;7.86;87.70;101202.90;107633;1256;97922;-67
2024/02/25 02:55:34;;;;;;;;;;;;;;;7.88;87.48;101202.79;107629;1253;98108;-65
2024/02/25 02:58:03;;;;;;;;;;;;;;;7.90;87.36;101207.25;107573;1254;111320;-65
2024/02/25 03:00:31;;;;;;;;;;;;;;;7.95;87.08;101202.95;107660;1253;107095;-65
2024/02/25 03:02:59;;;;;;;;;;;;;;;7.99;86.85;101201.11;107644;1254;107625;-64
2024/02/25 03:05:28;;;;;;;;;;;;;;;8.01;86.72;101201.52;107575;1254;97910;-63
2024/02/25 03:07:57;;;;;;;;;;;;;;;8.03;86.57;101202.09;107688;1253;97801;-64
2024/02/25 03:10:26;;;;;;;;;;;;;;;8.02;86.32;101203.06;107602;1254;111885;-64
2024/02/25 03:12:54;;;;;;;;;;;;;;;7.99;86.28;101205.16;107586;1254;108434;-63
2024/02/25 03:15:22;;;;;;;;;;;;;;;7.95;86.25;101209.56;107590;1253;108260;-63
2024/02/25 03:17:51;;;;;;;;;;;;;;;7.91;86.45;101204.86;107634;1253;97842;-64
2024/02/25 03:20:20;;;;;;;;;;;;;;;7.85;86.57;101202.04;107610;1253;97886;-63
2024/02/25 03:22:48;;;;;;;;;;;;;;;7.80;86.65;101202.73;107659;1254;111497;-62
2024/02/25 03:25:17;;;;;;;;;;;;;;;7.77;86.93;101200.80;107624;1254;108280;-64
2024/02/25 03:27:45;;;;;;;;;;;;;;;7.75;87.56;101201.90;107616;1255;109009;-63
2024/02/25 03:30:15;;;;;;;;;;;;;;;7.76;88.05;101200.37;107581;1254;97864;-64
2024/02/25 03:32:43;;;;;;;;;;;;;;;7.79;88.39;101200.91;107679;1252;97710;-65
2024/02/25 03:35:11;;;;;;;;;;;;;;;7.81;88.12;101205.93;107614;1253;111314;-67
2024/02/25 03:37:39;;;;;;;;;;;;;;;7.81;88.10;101207.86;107568;1253;107811;-64
2024/02/25 03:40:08;;;;;;;;;;;;;;;7.82;88.48;101212.97;107523;1256;109528;-66
2024/02/25 03:42:36;;;;;;;;;;;;;;;7.85;88.89;101217.62;107554;1254;97899;-62
2024/02/25 03:45:05;;;;;;;;;;;;;;;7.87;88.84;101218.38;107538;1256;97759;-65
2024/02/25 03:47:33;;;;;;;;;;;;;;;7.88;89.01;101222.97;107560;1253;112194;-65
2024/02/25 03:50:02;;;;;;;;;;;;;;;7.92;88.97;101228.77;107597;1251;108798;-66
2024/02/25 03:52:31;;;;;;;;;;;;;;;7.92;88.65;101228.02;107623;1256;108220;-64
2024/02/25 03:54:59;;;;;;;;;;;;;;;7.90;88.45;101233.30;107595;1253;97854;-63
2024/02/25 03:57:27;;;;;;;;;;;;;;;7.89;88.56;101230.55;107597;1251;97836;-63
2024/02/25 03:59:55;;;;;;;;;;;;;;;7.86;88.67;101231.80;107628;1255;111782;-66
2024/02/25 04:02:24;;;;;;;;;;;;;;;7.83;88.73;101238.27;107715;1252;108356;-64
2024/02/25 04:04:52;;;;;;;;;;;;;;;7.81;89.04;101238.96;107556;1254;107740;-63
2024/02/25 04:07:21;;;;;;;;;;;;;;;7.81;88.92;101233.74;107558;1253;98524;-64
2024/02/25 04:09:49;;;;;;;;;;;;;;;7.81;89.44;101236.41;107576;1253;97887;-64
2024/02/25 04:12:17;;;;;;;;;;;;;;;7.82;89.86;101236.56;107547;1254;111965;-64
2024/02/25 04:14:45;;;;;;;;;;;;;;;7.82;89.62;101231.56;107599;1254;107286;-66
2024/02/25 04:17:13;;;;;;;;;;;;;;;7.82;89.61;101231.34;107548;1256;107604;-64
2024/02/25 04:19:42;;;;;;;;;;;;;;;7.83;90.13;101233.27;107593;1255;97707;-66
2024/02/25 04:22:11;;;;;;;;;;;;;;;7.86;90.02;101232.73;107639;1251;97851;-63
2024/02/25 04:24:39;;;;;;;;;;;;;;;7.90;90.22;101234.21;107618;1251;112262;-64
2024/02/25 04:27:07;;;;;;;;;;;;;;;7.94;89.88;101238.23;107619;1254;108426;-63
2024/02/25 04:29:37;;;;;;;;;;;;;;;7.95;89.95;101239.41;107624;1253;106697;-65
2024/02/25 04:32:05;;;;;;;;;;;;;;;7.95;89.80;101245.27;107534;1253;97842;-63
2024/02/25 04:34:37;;;;;;;;;;;;;;;7.92;89.64;101248.20;107621;1253;97766;-65
2024/02/25 04:37:05;;;;;;;;;;;;;;;7.90;89.69;101250.47;107554;1254;112051;-65
2024/02/25 04:39:38;;;;;;;;;;;;;;;7.89;89.61;101251.77;107673;1254;108289;-63
2024/02/25 04:42:07;;;;;;;;;;;;;;;7.88;89.80;101255.25;107603;1252;107095;-63
2024/02/25 04:44:35;;;;;;;;;;;;;;;7.88;90.26;101260.10;107627;1251;97669;-63
2024/02/25 04:47:03;;;;;;;;;;;;;;;7.86;89.77;101260.56;107527;1250;97703;-65
2024/02/25 04:49:32;;;;;;;;;;;;;;;7.86;89.97;101262.92;107492;1250;111416;-65
2024/02/25 04:52:00;;;;;;;;;;;;;;;7.88;89.96;101266.34;107579;1253;108553;-65
2024/02/25 04:54:29;;;;;;;;;;;;;;;7.90;89.79;101271.36;107570;1251;108611;-66
2024/02/25 04:56:57;;;;;;;;;;;;;;;7.95;90.04;101272.31;107582;1253;97845;-65
2024/02/25 04:59:25;;;;;;;;;;;;;;;7.97;89.80;101276.98;107650;1253;97857;-65
2024/02/25 05:01:54;;;;;;;;;;;;;;;7.97;89.67;101279.98;107567;1252;111959;-63
2024/02/25 05:04:24;;;;;;;;;;;;;;;7.98;89.65;101282.40;107576;1253;108390;-65
2024/02/25 05:06:52;;;;;;;;;;;;;;;7.99;89.74;101283.95;107607;1255;108039;-63
2024/02/25 05:09:21;;;;;;;;;;;;;;;7.94;89.75;101287.16;107614;1254;97837;-63
2024/02/25 05:11:49;;;;;;;;;;;;;;;7.91;89.82;101293.63;107612;1254;97899;-63
2024/02/25 05:14:18;;;;;;;;;;;;;;;7.89;89.79;101300.36;107544;1254;112373;-63
2024/02/25 05:16:47;;;;;;;;;;;;;;;7.90;89.66;101295.31;107627;1250;107903;-63
2024/02/25 05:19:15;;;;;;;;;;;;;;;7.89;89.60;101298.97;107559;1255;106201;-64
2024/02/25 05:21:44;;;;;;;;;;;;;;;7.87;89.82;101301.55;107680;1254;97832;-63
2024/02/25 05:24:12;;;;;;;;;;;;;;;7.87;89.68;101307.29;107576;1251;97815;-65
2024/02/25 05:26:41;;;;;;;;;;;;;;;7.88;90.03;101306.36;107624;1254;111773;-64
2024/02/25 05:29:09;;;;;;;;;;;;;;;7.87;90.09;101308.52;107642;1250;108581;-63
2024/02/25 05:31:38;;;;;;;;;;;;;;;7.91;90.34;101314.02;107628;1253;108611;-63
2024/02/25 05:34:06;;;;;;;;;;;;;;;7.95;89.99;101317.27;107606;1253;97951;-64
2024/02/25 05:36:35;;;;;;;;;;;;;;;7.98;90.26;101322.62;107540;1254;98011;-64
2024/02/25 05:39:04;;;;;;;;;;;;;;;8.02;90.28;101314.33;107570;1253;112382;-64
2024/02/25 05:41:33;;;;;;;;;;;;;;;8.04;90.13;101314.52;107406;1253;108046;-65
2024/02/25 05:44:01;;;;;;;;;;;;;;;8.06;90.34;101314.39;107525;1253;108598;-66
2024/02/25 05:46:29;;;;;;;;;;;;;;;8.07;90.35;101313.42;107561;1253;97861;-64
2024/02/25 05:48:58;;;;;;;;;;;;;;;8.08;90.03;101314.98;107546;1253;97739;-64
2024/02/25 05:51:26;;;;;;;;;;;;;;;8.06;89.84;101317.77;107633;1256;112208;-63
2024/02/25 05:53:55;;;;;;;;;;;;;;;8.05;89.69;101321.25;107575;1252;108019;-63
2024/02/25 05:56:25;;;;;;;;;;;;;;;8.07;89.71;101328.98;107572;1253;108124;-63
2024/02/25 05:58:54;;;;;;;;;;;;;;;8.07;89.98;101326.80;107568;1253;97822;-62
2024/02/25 06:01:23;;;;;;;;;;;;;;;8.08;89.89;101330.85;107570;1253;97821;-63
2024/02/25 06:03:51;;;;;;;;;;;;;;;8.09;90.38;101336.86;107600;1253;110497;-64
2024/02/25 06:06:19;;;;;;;;;;;;;;;8.13;90.28;101340.85;107575;1253;107878;-64
2024/02/25 06:08:47;;;;;;;;;;;;;;;8.23;90.68;101340.91;107549;1254;107430;-65
2024/02/25 06:11:16;;;;;;;;;;;;;;;8.35;90.64;101332.91;107267;1256;97839;-64
2024/02/25 06:13:44;;;;;;;;;;;;;;;8.45;90.28;101333.52;107573;1254;97944;-65
2024/02/25 06:16:13;;;;;;;;;;;;;;;8.51;89.83;101336.15;107558;1254;111647;-65
2024/02/25 06:18:41;;;;;;;;;;;;;;;8.59;89.74;101335.23;107455;1253;109098;-64
2024/02/25 06:21:09;;;;;;;;;;;;;;;8.64;89.58;101331.84;107523;1252;108580;-63
2024/02/25 06:23:38;;;;;;;;;;;;;;;8.67;89.04;101328.21;107513;1252;97833;-63
2024/02/25 06:26:06;;;;;;;;;;;;;;;8.68;88.81;101332.40;107578;1254;98614;-64
2024/02/25 06:28:36;;;;;;;;;;;;;;;8.74;88.87;101335.71;107538;1254;111363;-65
2024/02/25 06:31:05;;;;;;;;;;;;;;;8.79;88.42;101341.33;107562;1254;107943;-65
2024/02/25 06:33:33;;;;;;;;;;;;;;;8.78;88.10;101344.23;107551;1252;107563;-63
2024/02/25 06:36:02;;;;;;;;;;;;;;;8.74;87.97;101345.05;107577;1254;97976;-65
2024/02/25 06:38:30;;;;;;;;;;;;;;;8.72;88.10;101345.55;107655;1254;97970;-66
2024/02/25 06:40:58;;;;;;;;;;;;;;;8.75;87.99;101341.39;107578;1253;111644;-65
2024/02/25 06:43:28;;;;;;;;;;;;;;;8.75;87.83;101340.30;107586;1252;110690;-64
2024/02/25 06:45:57;;;;;;;;;;;;;;;8.76;87.72;101344.20;107548;1254;107863;-64
2024/02/25 06:48:25;;;;;;;;;;;;;;;8.76;87.69;101345.56;107537;1254;97815;-65
2024/02/25 06:50:54;;;;;;;;;;;;;;;8.80;87.82;101353.80;107543;1251;97982;-65
2024/02/25 06:53:22;;;;;;;;;;;;;;;8.85;87.73;101353.75;107503;1254;111560;-64
2024/02/25 06:55:51;;;;;;;;;;;;;;;8.91;87.51;101343.86;107563;1251;107916;-65
2024/02/25 06:58:19;;;;;;;;;;;;;;;8.98;87.68;101350.68;107630;1251;107482;-66
2024/02/25 07:00:47;;;;;;;;;;;;;;;9.03;87.16;101355.28;107561;1251;97847;-66
2024/02/25 07:03:15;;;;;;;;;;;;;;;9.07;86.76;101348.74;107572;1251;97815;-65
2024/02/25 07:05:44;;;;;;;;;;;;;;;9.13;86.67;101348.34;107593;1254;112155;-62
2024/02/25 07:08:12;;;;;;;;;;;;;;;9.19;86.54;101346.32;107528;1257;108353;-64
2024/02/25 07:10:40;;;;;;;;;;;;;;;9.22;86.19;101334.82;107547;1251;108568;-63
2024/02/25 07:13:09;;;;;;;;;;;;;;;9.19;85.71;101333.92;107601;1251;97821;-63
2024/02/25 07:15:38;;;;;;;;;;;;;;;9.15;85.67;101326.88;107577;1255;97874;-63
2024/02/25 07:18:06;;;;;;;;;;;;;;;9.13;85.71;101327.05;107547;1254;110951;-63
2024/02/25 07:20:34;;;;;;;;;;;;;;;9.14;85.85;101325.41;107580;1256;108329;-62
2024/02/25 07:23:03;;;;;;;;;;;;;;;9.11;85.72;101326.98;107560;1254;107702;-64
2024/02/25 07:25:31;;;;;;;;;;;;;;;9.08;85.74;101329.36;107580;1252;97842;-66
2024/02/25 07:27:59;;;;;;;;;;;;;;;9.11;85.80;101335.58;107597;1254;98426;-66
2024/02/25 07:30:29;;;;;;;;;;;;;;;9.18;85.86;101334.73;107551;1255;111156;-66
2024/02/25 07:32:57;;;;;;;;;;;;;;;9.26;85.86;101338.96;107583;1254;108861;-67
2024/02/25 07:35:26;;;;;;;;;;;;;;;9.32;85.51;101333.17;107627;1254;108255;-67
2024/02/25 07:37:54;;;;;;;;;;;;;;;9.43;85.44;101338.81;107571;1252;97862;-64
2024/02/25 07:40:22;;;;;;;;;;;;;;;9.55;84.97;101334.52;107606;1252;97851;-64
2024/02/25 07:42:51;;;;;;;;;;;;;;;9.65;84.66;101338.23;107492;1253;112050;-65
2024/02/25 07:45:20;;;;;;;;;;;;;;;9.76;84.35;101339.70;107488;1254;107579;-64
2024/02/25 07:47:48;;;;;;;;;;;;;;;9.89;84.01;101337.52;107563;1254;108732;-62
2024/02/25 07:50:16;;;;;;;;;;;;;;;10.01;83.68;101343.39;107582;1253;97925;-65
2024/02/25 07:52:44;;;;;;;;;;;;;;;10.13;83.28;101344.60;107582;1254;97853;-62
2024/02/25 07:55:13;;;;;;;;;;;;;;;10.19;82.78;101341.10;107636;1252;110755;-64
2024/02/25 07:57:41;;;;;;;;;;;;;;;10.26;82.34;101341.60;107613;1253;108069;-62
2024/02/25 08:00:10;;;;;;;;;;;;;;;10.35;81.91;101332.00;107593;1254;107920;-63
2024/02/25 08:02:39;;;;;;;;;;;;;;;10.41;81.50;101327.02;107570;1255;97649;-65
2024/02/25 08:05:07;;;;;;;;;;;;;;;10.58;81.55;101329.27;107585;1253;97830;-63
2024/02/25 08:07:36;;;;;;;;;;;;;;;10.74;80.72;101322.45;107628;1252;112009;-64
2024/02/25 08:10:04;;;;;;;;;;;;;;;10.86;79.95;101323.83;107610;1254;107653;-65
2024/02/25 08:12:32;;;;;;;;;;;;;;;10.91;78.74;101326.31;107555;1252;108482;-65
2024/02/25 08:15:00;;;;;;;;;;;;;;;10.97;78.70;101331.23;107577;1254;97834;-65
2024/02/25 08:17:29;;;;;;;;;;;;;;;11.09;78.88;101329.55;107581;1254;97723;-64
2024/02/25 08:19:57;;;;;;;;;;;;;;;11.14;77.79;101328.40;107666;1254;109409;-65
2024/02/25 08:22:26;;;;;;;;;;;;;;;11.16;77.51;101323.77;107629;1254;108808;-63
2024/02/25 08:24:54;;;;;;;;;;;;;;;11.21;77.60;101316.50;107600;1254;108420;-63
2024/02/25 08:27:28;;;;;;;;;;;;;;;11.27;76.71;101310.77;107507;1257;97944;-66
2024/02/25 08:29:57;;;;;;;;;;;;;;;11.25;76.33;101311.13;107630;1251;97717;-67
2024/02/25 08:32:25;;;;;;;;;;;;;;;11.29;76.36;101300.98;107705;1250;112211;-65
2024/02/25 08:34:54;;;;;;;;;;;;;;;11.35;75.69;101296.52;107600;1251;107977;-63
2024/02/25 08:37:27;;;;;;;;;;;;;;;11.44;75.38;101300.61;107590;1251;107789;-63
2024/02/25 08:39:55;;;;;;;;;;;;;;;11.51;74.89;101294.99;107634;1251;97838;-64
2024/02/25 08:42:23;;;;;;;;;;;;;;;11.56;74.60;101295.97;107560;1251;97705;-62
2024/02/25 08:44:52;;;;;;;;;;;;;;;11.69;74.51;101288.46;107598;1251;113260;-63
2024/02/25 08:47:20;;;;;;;;;;;;;;;11.76;73.77;101286.77;106653;1252;1281913;-64
2024/02/25 08:49:49;;;;;;;;;;;;;;;11.80;73.46;101279.08;107625;1251;108644;-64
2024/02/25 08:52:18;;;;;;;;;;;;;;;11.90;73.34;101275.15;107581;1251;97901;-63
2024/02/25 08:54:48;;;;;;;;;;;;;;;12.00;72.72;101270.55;107638;1251;97879;-64
2024/02/25 08:57:17;;;;;;;;;;;;;;;11.94;71.93;101260.25;107560;1251;111811;-63
2024/02/25 08:59:45;;;;;;;;;;;;;;;11.92;71.79;101256.32;107557;1251;107891;-63
2024/02/25 09:02:14;;;;;;;;;;;;;;;11.98;72.01;101260.48;107546;1254;107990;-64
2024/02/25 09:04:42;;;;;;;;;;;;;;;12.12;71.50;101264.68;107589;1252;97667;-63
2024/02/25 09:07:11;;;;;;;;;;;;;;;12.15;70.89;101259.54;107563;1255;97912;-62
2024/02/25 09:09:39;;;;;;;;;;;;;;;12.24;70.94;101259.02;107580;1253;111241;-63
2024/02/25 09:12:08;;;;;;;;;;;;;;;12.39;70.51;101257.83;107592;1253;108306;-63
2024/02/25 09:14:36;;;;;;;;;;;;;;;12.59;70.05;101258.03;107623;1251;106179;-63
2024/02/25 09:17:04;;;;;;;;;;;;;;;12.69;69.31;101260.05;107591;1251;97947;-63
2024/02/25 09:19:32;;;;;;;;;;;;;;;12.76;69.15;101256.54;107557;1253;97716;-63
2024/02/25 09:22:01;;;;;;;;;;;;;;;12.97;68.97;101253.02;107613;1254;111537;-65
2024/02/25 09:24:29;;;;;;;;;;;;;;;13.15;67.85;101255.02;107588;1251;108320;-63
2024/02/25 09:26:57;;;;;;;;;;;;;;;13.29;68.08;101256.23;107530;1251;106592;-64
2024/02/25 09:29:25;;;;;;;;;;;;;;;13.54;67.36;101249.66;107496;1251;97814;-64
2024/02/25 09:31:56;;;;;;;;;;;;;;;13.60;66.41;101245.60;107621;1251;97845;-65
2024/02/25 09:34:24;;;;;;;;;;;;;;;13.66;65.85;101249.58;107635;1251;111740;-64
2024/02/25 09:36:53;;;;;;;;;;;;;;;13.72;65.48;101251.16;107616;1251;107081;-63
2024/02/25 09:39:21;;;;;;;;;;;;;;;13.78;65.42;101254.05;107574;1251;108272;-62
2024/02/25 09:41:54;;;;;;;;;;;;;;;13.73;65.45;101255.73;107521;1251;97946;-64
2024/02/25 09:44:24;;;;;;;;;;;;;;;13.64;65.27;101256.13;107546;1254;97723;-63
2024/02/25 09:46:53;;;;;;;;;;;;;;;13.43;65.41;101253.67;107551;1251;110799;-64
2024/02/25 09:49:26;;;;;;;;;;;;;;;13.27;65.68;101254.77;107443;1254;108020;-63
2024/02/25 09:51:55;;;;;;;;;;;;;;;13.21;66.30;101252.45;107530;1253;107996;-63
2024/02/25 09:54:24;;;;;;;;;;;;;;;13.27;66.23;101248.13;107443;1254;98358;-64
2024/02/25 09:56:52;;;;;;;;;;;;;;;13.39;66.26;101246.70;107511;1251;97850;-63
2024/02/25 09:59:21;;;;;;;;;;;;;;;13.42;65.46;101244.83;107489;1255;111593;-64
2024/02/25 10:01:49;;;;;;;;;;;;;;;13.39;65.61;101241.48;107518;1254;107203;-62
2024/02/25 10:04:18;;;;;;;;;;;;;;;13.44;65.77;101232.53;107456;1254;108466;-63
2024/02/25 10:06:47;;;;;;;;;;;;;;;13.44;65.30;101235.64;107550;1253;97915;-63
2024/02/25 10:09:26;;;;;;;;;;;;;;;13.43;65.61;101233.70;107490;1251;97970;-64
2024/02/25 10:11:55;;;;;;;;;;;;;;;13.53;65.56;101233.83;107498;1254;111408;-63
2024/02/25 10:14:23;;;;;;;;;;;;;;;13.59;65.54;101234.91;107540;1254;108360;-64
2024/02/25 10:17:01;;;;;;;;;;;;;;;13.71;64.98;101231.80;107454;1254;107880;-63
2024/02/25 10:19:33;;;;;;;;;;;;;;;13.69;64.68;101236.52;107451;1251;98506;-64
2024/02/25 10:22:07;;;;;;;;;;;;;;;13.73;64.54;101238.30;107486;1255;97828;-63
2024/02/25 10:24:35;;;;;;;;;;;;;;;13.77;64.50;101238.65;107474;1254;111359;-63
2024/02/25 10:27:08;;;;;;;;;;;;;;;13.80;64.51;101245.55;107484;1254;107243;-63
2024/02/25 10:29:50;;;;;;;;;;;;;;;13.84;64.52;101244.30;107469;1253;107590;-64
2024/02/25 10:32:26;;;;;;;;;;;;;;;13.85;64.25;101242.08;107446;1251;98103;-63
2024/02/25 10:34:55;;;;;;;;;;;;;;;13.74;63.81;101242.30;107526;1251;97855;-63
2024/02/25 10:37:24;;;;;;;;;;;;;;;13.65;64.35;101241.41;107533;1251;111103;-63
2024/02/25 10:39:57;;;;;;;;;;;;;;;13.67;64.62;101241.60;107596;1251;108402;-63
2024/02/25 10:42:27;;;;;;;;;;;;;;;13.66;64.37;101241.69;107475;1253;108931;-64
2024/02/25 10:44:58;;;;;;;;;;;;;;;13.71;64.82;101239.38;107517;1252;97836;-64
2024/02/25 10:47:27;;;;;;;;;;;;;;;13.76;64.48;101235.61;107518;1253;97839;-63
2024/02/25 10:49:55;;;;;;;;;;;;;;;13.71;64.27;101233.63;107540;1254;111834;-64
2024/02/25 10:52:27;;;;;;;;;;;;;;;13.62;64.15;101241.33;107470;1258;107873;-66
2024/02/25 10:54:58;;;;;;;;;;;;;;;13.61;64.77;101238.00;107464;1256;107598;-64
2024/02/25 10:57:28;;;;;;;;;;;;;;;13.59;64.49;101237.10;107458;1254;97828;-64
2024/02/25 10:59:56;;;;;;;;;;;;;;;13.56;64.62;101232.85;107537;1253;97892;-62
2024/02/25 11:02:26;;;;;;;;;;;;;;;13.55;64.68;101232.00;107517;1254;110588;-64
2024/02/25 11:04:55;;;;;;;;;;;;;;;13.51;64.60;101227.73;107516;1254;108752;-63
2024/02/25 11:07:24;;;;;;;;;;;;;;;13.43;64.46;101230.08;107512;1254;107821;-63
2024/02/25 11:09:55;;;;;;;;;;;;;;;13.33;64.56;101224.75;107535;1256;97857;-63
2024/02/25 11:12:24;;;;;;;;;;;;;;;13.21;64.82;101223.78;107522;1254;97800;-62
2024/02/25 11:15:00;;;;;;;;;;;;;;;13.19;65.15;101223.44;107460;1253;112193;-64
2024/02/25 11:17:36;;;;;;;;;;;;;;;13.17;65.33;101219.55;107575;1254;108595;-64
2024/02/25 11:20:07;;;;;;;;;;;;;;;13.08;65.73;101225.91;107438;1255;108328;-63
2024/02/25 11:22:43;;;;;;;;;;;;;;;13.12;66.02;101221.60;107502;1254;97895;-63
2024/02/25 11:25:27;;;;;;;;;;;;;;;13.15;66.09;101223.13;107512;1253;97915;-63
2024/02/25 11:27:56;;;;;;;;;;;;;;;13.17;66.22;101220.98;107525;1253;110125;-62
2024/02/25 11:30:38;;;;;;;;;;;;;;;13.16;66.32;101217.91;107499;1254;108835;-63
2024/02/25 11:33:25;;;;;;;;;;;;;;;13.09;66.33;101216.79;107575;1252;107674;-62
2024/02/25 11:35:54;;;;;;;;;;;;;;;13.00;66.44;101211.67;107524;1254;97847;-63
2024/02/25 11:38:23;;;;;;;;;;;;;;;12.92;66.55;101212.59;107512;1253;98142;-64
2024/02/25 11:40:51;;;;;;;;;;;;;;;12.84;66.68;101211.34;107551;1254;111660;-63
2024/02/25 11:43:20;;;;;;;;;;;;;;;12.80;66.96;101206.16;107493;1254;108588;-63
2024/02/25 11:45:48;;;;;;;;;;;;;;;12.80;67.05;101207.92;107427;1254;108211;-63
2024/02/25 11:48:16;;;;;;;;;;;;;;;12.80;67.25;101205.21;107495;1252;97832;-64
2024/02/25 11:50:45;;;;;;;;;;;;;;;12.81;67.18;101202.07;107522;1254;98495;-62
2024/02/25 11:53:13;;;;;;;;;;;;;;;12.79;67.22;101202.44;107459;1251;112291;-63
2024/02/25 11:55:43;;;;;;;;;;;;;;;12.78;67.14;101207.95;107487;1253;107914;-64
2024/02/25 11:58:11;;;;;;;;;;;;;;;12.81;67.28;101205.08;107502;1254;108283;-63
2024/02/25 12:00:40;;;;;;;;;;;;;;;12.83;67.23;101204.94;107451;1254;98150;-65
2024/02/25 12:03:08;;;;;;;;;;;;;;;12.83;67.14;101207.13;107474;1251;97970;-63
2024/02/25 12:05:37;;;;;;;;;;;;;;;12.78;67.12;101206.10;107497;1250;112367;-63
2024/02/25 12:08:06;;;;;;;;;;;;;;;12.69;67.18;101207.65;107584;1252;108541;-63
2024/02/25 12:10:35;;;;;;;;;;;;;;;12.68;67.33;101207.23;107474;1251;107397;-63
2024/02/25 12:13:03;;;;;;;;;;;;;;;12.70;67.43;101207.77;107497;1251;97967;-63
2024/02/25 12:15:32;;;;;;;;;;;;;;;12.76;67.38;101207.89;107533;1251;97719;-62
2024/02/25 12:18:02;;;;;;;;;;;;;;;12.82;67.09;101209.71;107474;1251;112158;-62
2024/02/25 12:20:31;;;;;;;;;;;;;;;12.82;67.06;101207.16;107536;1251;107184;-65
2024/02/25 12:23:00;;;;;;;;;;;;;;;12.85;67.40;101206.75;107568;1251;108035;-64
2024/02/25 12:25:28;;;;;;;;;;;;;;;12.89;67.49;101206.39;107528;1251;97903;-64
2024/02/25 12:28:10;;;;;;;;;;;;;;;12.89;67.57;101205.35;107543;1251;97727;-63
2024/02/25 12:30:47;;;;;;;;;;;;;;;12.90;67.89;101202.02;107496;1254;111234;-63
2024/02/25 12:33:17;;;;;;;;;;;;;;;12.90;68.18;101199.63;107472;1251;109400;-62
2024/02/25 12:35:46;;;;;;;;;;;;;;;12.89;68.27;101200.60;107465;1256;107614;-64
2024/02/25 12:38:15;;;;;;;;;;;;;;;12.92;68.57;101202.36;107485;1254;97847;-64